Terminal Aerodrome Forecast
Issued by NWS

Home | Current Version | Previous Version | Text Only | Print | Product List | Glossary On
Versions: 1 2 3 4 5 6 7 8 9 10 11 12 13 14 15 16 17 18 19
000
FTUS44 KTSA 312300
TAFFYV
TAF
KFYV 312325Z 0100/0124 00000KT P6SM SCT029 OVC045
     FM010600 00000KT 2SM BR BKN025
     FM011000 00000KT 1/2SM FG OVC005
     FM011400 18004KT P6SM BKN025
     FM011800 06005KT P6SM BKN050
     FM012200 07004KT P6SM BKN250=

USA.gov is the U.S. government's official web portal to all federal, state and local government web resources and services.